Terminal Aerodrome Forecast
Issued by NWS Charleston, WV

Current Version | Previous Version | Graphics & Text | Print | Product List | Glossary On
Versions: 1 2 3 4 5 6 7 8 9 10 11 12 13 14 15 16 17 18 19 20 21 22 23 24 25
000
FTUS41 KRLX 311743
TAFEKN
TAF
KEKN 311743Z 3118/0118 30006KT P6SM SCT050
     FM010200 27002KT P6SM SCT250
     FM010800 00000KT 5SM BR SCT060
     FM011000 00000KT 1SM BR SCT001 SCT060
     FM011100 00000KT 1/2SM FG BKN001
     FM011200 00000KT 4SM BR SCT001
     FM011330 28006KT P6SM SCT045=

USA.gov is the U.S. government's official web portal to all federal, state and local government web resources and services.